.
WxDataArchive / Data Records for 2009-01-12
2009-01-11 January 2009 2009-01-13

Data Records for Monday, 12 January 2009

Time	Temp	Chill	HIndex	Humid	Dewpt	 Wind 	HiWind	WindDir	Rain 	Barom 
-----	----	-----	------	-----	-----	------	------	-------	-----	----- 
00:00	21.9	21.9	21.9	87	18.6	0	2	248	0.00	30.134 
00:05	21.9	21.9	21.9	87	18.6	0	3	248	0.00	30.134 
00:10	22.1	22.1	22.1	86	18.6	0	2	248	0.00	30.134 
00:15	22.1	22.1	22.1	86	18.6	0	2	248	0.00	30.134 
00:20	22.1	22.1	22.1	86	18.6	0	3	248	0.00	30.135 
00:25	22.1	22.1	22.1	86	18.6	0	1	248	0.00	30.134 
00:30	22.1	22.1	22.1	86	18.6	0	1	248	0.00	30.134 
00:35	21.9	21.9	21.9	86	18.4	0	2	248	0.00	30.134 
00:40	21.9	21.9	21.9	86	18.4	0	2	248	0.00	30.134 
00:45	21.9	21.9	21.9	86	18.4	0	3	248	0.00	30.132 
00:50	21.9	21.9	21.9	86	18.4	0	1	248	0.00	30.133 
00:55	21.9	21.9	21.9	86	18.4	0	2	248	0.00	30.133 
01:00	21.9	21.9	21.9	85	18.1	1	3	270	0.00	30.133 
01:05	21.8	21.8	21.8	85	18.0	0	2	0	0.00	30.132 
01:10	21.6	21.6	21.6	85	17.8	0	1	338	0.00	30.132 
01:15	21.4	21.4	21.4	85	17.6	0	2	248	0.00	30.135 
01:20	21.4	21.4	21.4	85	17.6	0	1	248	0.00	30.135 
01:25	21.4	21.4	21.4	85	17.6	0	1	248	0.00	30.135 
01:30	21.4	21.4	21.4	85	17.6	0	1	248	0.00	30.136 
01:35	21.3	21.3	21.3	85	17.5	0	1	248	0.00	30.136 
01:40	21.3	21.3	21.3	85	17.5	0	2	248	0.00	30.138 
01:45	21.1	21.1	21.1	85	17.3	0	2	248	0.00	30.139 
01:50	21.0	21.0	21.0	85	17.2	0	2	248	0.00	30.142 
01:55	21.0	21.0	21.0	85	17.2	0	1	248	0.00	30.142 
02:00	20.6	20.6	20.6	85	16.8	0	1	248	0.00	30.144 
02:05	20.5	20.5	20.5	84	16.4	0	1	248	0.00	30.147 
02:10	20.2	20.2	20.2	84	16.2	0	1	248	0.00	30.148 
02:15	20.0	20.0	20.0	84	16.0	0	2	248	0.00	30.152 
02:20	19.9	19.9	19.9	84	15.9	0	1	248	0.00	30.152 
02:25	19.9	19.9	19.9	85	16.1	0	1	248	0.00	30.153 
02:30	19.9	19.9	19.9	85	16.1	0	0	---	0.00	30.153 
02:35	19.9	19.9	19.9	85	16.1	0	1	248	0.00	30.157 
02:40	19.9	19.9	19.9	85	16.1	0	0	---	0.00	30.162 
02:45	19.9	19.9	19.9	85	16.1	0	0	---	0.00	30.165 
02:50	19.9	19.9	19.9	85	16.1	0	1	248	0.00	30.166 
02:55	19.7	19.7	19.7	85	15.9	0	0	---	0.00	30.170 
03:00	19.4	19.4	19.4	85	15.6	0	0	---	0.00	30.172 
03:05	19.2	19.2	19.2	85	15.4	0	0	---	0.00	30.178 
03:10	19.1	19.1	19.1	85	15.3	0	0	---	0.00	30.181 
03:15	19.1	19.1	19.1	85	15.3	0	0	---	0.00	30.185 
03:20	19.2	19.2	19.2	86	15.7	0	1	248	0.00	30.184 
03:25	19.2	19.2	19.2	86	15.7	0	0	---	0.00	30.183 
03:30	19.5	19.5	19.5	87	16.3	0	1	248	0.00	30.186 
03:35	19.7	19.7	19.7	87	16.5	0	1	248	0.00	30.187 
03:40	19.9	19.9	19.9	87	16.7	0	0	---	0.00	30.189 
03:45	20.0	20.0	20.0	87	16.8	0	0	---	0.00	30.190 
03:50	20.2	20.2	20.2	87	17.0	0	1	248	0.00	30.193 
03:55	20.3	20.3	20.3	87	17.1	0	1	248	0.00	30.193 
04:00	20.5	20.5	20.5	86	17.0	0	2	248	0.00	30.188 
04:05	20.5	20.5	20.5	86	17.0	0	1	248	0.00	30.189 
04:10	20.5	20.5	20.5	86	17.0	0	1	248	0.00	30.187 
04:15	20.6	20.6	20.6	86	17.1	0	1	248	0.00	30.191 
04:20	20.6	20.6	20.6	86	17.1	0	1	248	0.00	30.188 
04:25	20.6	20.6	20.6	86	17.1	0	1	248	0.00	30.188 
04:30	20.6	20.6	20.6	86	17.1	0	2	248	0.00	30.188 
04:35	20.8	20.8	20.8	85	17.0	1	4	248	0.00	30.193 
04:40	20.8	20.8	20.8	85	17.0	1	2	248	0.00	30.195 
04:45	21.0	21.0	21.0	85	17.2	1	2	248	0.00	30.195 
04:50	21.0	21.0	21.0	85	17.2	0	3	248	0.00	30.195 
04:55	21.0	21.0	21.0	85	17.2	0	1	248	0.00	30.193 
05:00	21.1	21.1	21.1	85	17.3	0	2	248	0.00	30.191 
05:05	21.1	21.1	21.1	85	17.3	0	2	248	0.00	30.192 
05:10	21.1	21.1	21.1	84	17.0	0	1	248	0.00	30.198 
05:15	21.1	21.1	21.1	84	17.0	0	2	248	0.00	30.196 
05:20	21.1	21.1	21.1	84	17.0	0	3	248	0.00	30.195 
05:25	21.1	21.1	21.1	84	17.0	1	2	248	0.00	30.197 
05:30	21.3	21.3	21.3	83	17.0	1	3	248	0.00	30.199 
05:35	21.3	21.3	21.3	83	17.0	0	2	248	0.00	30.197 
05:40	21.3	21.3	21.3	83	17.0	0	2	248	0.00	30.192 
05:45	21.3	21.3	21.3	82	16.7	0	2	248	0.00	30.196 
05:50	21.3	21.3	21.3	82	16.7	1	2	248	0.00	30.198 
05:55	21.4	21.4	21.4	82	16.8	0	1	248	0.00	30.201 
06:00	21.4	21.4	21.4	82	16.8	0	2	248	0.00	30.197 
06:05	21.4	21.4	21.4	82	16.8	0	2	248	0.00	30.191 
06:10	21.4	21.4	21.4	82	16.8	0	2	248	0.00	30.200 
06:15	21.3	21.3	21.3	82	16.7	0	2	248	0.00	30.201 
06:20	21.3	21.3	21.3	82	16.7	1	3	248	0.00	30.212 
06:25	21.4	21.4	21.4	83	17.1	1	3	248	0.00	30.216 
06:30	21.4	21.4	21.4	83	17.1	0	2	248	0.00	30.219 
06:35	21.4	21.4	21.4	83	17.1	1	4	248	0.00	30.227 
06:40	21.4	21.4	21.4	83	17.1	1	2	248	0.00	30.233 
06:45	21.4	21.4	21.4	82	16.8	1	3	248	0.00	30.234 
06:50	21.4	21.4	21.4	82	16.8	1	4	248	0.00	30.235 
06:55	21.4	21.4	21.4	82	16.8	0	2	248	0.00	30.240 
07:00	21.4	21.4	21.4	82	16.8	1	3	248	0.00	30.245 
07:05	21.4	21.4	21.4	81	16.5	1	4	248	0.00	30.246 
07:10	21.4	21.4	21.4	81	16.5	0	3	248	0.00	30.239 
07:15	21.4	21.4	21.4	81	16.5	0	2	248	0.00	30.237 
07:20	21.4	21.4	21.4	81	16.5	1	4	248	0.00	30.247 
07:25	21.4	21.4	21.4	81	16.5	1	3	248	0.00	30.249 
07:30	21.4	21.4	21.4	81	16.5	1	4	248	0.00	30.247 
07:35	21.4	21.4	21.4	81	16.5	0	2	248	0.00	30.246 
07:40	21.4	21.4	21.4	81	16.5	1	4	248	0.00	30.247 
07:45	21.4	21.4	21.4	81	16.5	0	2	248	0.00	30.246 
07:50	21.4	21.4	21.4	81	16.5	0	1	248	0.00	30.248 
07:55	21.4	21.4	21.4	81	16.5	0	1	248	0.00	30.247 
08:00	21.4	21.4	21.4	81	16.5	0	2	248	0.00	30.246 
08:05	21.6	21.6	21.6	80	16.4	0	1	248	0.00	30.242 
08:10	21.6	21.6	21.6	81	16.7	0	1	248	0.00	30.242 
08:15	21.6	21.6	21.6	81	16.7	0	2	248	0.00	30.244 
08:20	21.6	21.6	21.6	81	16.7	0	1	248	0.00	30.243 
08:25	21.6	21.6	21.6	81	16.7	0	1	248	0.00	30.242 
08:30	21.6	21.6	21.6	81	16.7	0	1	248	0.00	30.247 
08:35	21.6	21.6	21.6	81	16.7	0	1	248	0.00	30.245 
08:40	21.6	21.6	21.6	81	16.7	0	2	248	0.00	30.247 
08:45	21.8	21.8	21.8	81	16.9	0	1	248	0.00	30.246 
08:50	21.8	21.8	21.8	81	16.9	0	0	---	0.00	30.248 
08:55	21.8	21.8	21.8	81	16.9	0	1	248	0.00	30.249 
09:00	21.8	21.8	21.8	82	17.2	0	1	248	0.00	30.251 
09:05	21.8	21.8	21.8	82	17.2	0	1	248	0.00	30.250 
09:10	21.8	21.8	21.8	82	17.2	0	1	248	0.00	30.248 
09:15	21.9	21.9	21.9	82	17.3	0	0	---	0.00	30.250 
09:20	21.9	21.9	21.9	82	17.3	0	1	248	0.00	30.250 
09:25	21.9	21.9	21.9	82	17.3	0	0	---	0.00	30.251 
09:30	22.1	22.1	22.1	82	17.5	0	0	---	0.00	30.252 
09:35	22.1	22.1	22.1	82	17.5	0	0	---	0.00	30.255 
09:40	22.1	22.1	22.1	83	17.7	0	0	---	0.00	30.253 
09:45	22.2	22.2	22.2	83	17.8	0	0	---	0.00	30.256 
09:50	22.4	22.4	22.4	83	18.0	0	0	---	0.00	30.259 
09:55	22.4	22.4	22.4	83	18.0	0	0	---	0.00	30.262 
10:00	22.4	22.4	22.4	82	17.8	0	1	248	0.00	30.262 
10:05	22.4	22.4	22.4	82	17.8	0	0	---	0.00	30.264 
10:10	22.5	22.5	22.5	82	17.9	0	0	---	0.00	30.264 
10:15	22.5	22.5	22.5	82	17.9	0	0	---	0.00	30.264 
10:20	22.7	22.7	22.7	83	18.3	0	0	---	0.00	30.265 
10:25	22.9	22.9	22.9	83	18.5	0	0	---	0.00	30.263 
10:30	23.2	23.2	23.2	82	18.5	0	1	248	0.00	30.263 
10:35	23.5	23.5	23.5	82	18.8	0	1	248	0.00	30.254 
10:40	23.5	23.5	23.5	81	18.5	0	2	158	0.00	30.249 
10:45	23.3	23.3	23.3	80	18.1	1	3	112	0.00	30.253 
10:50	23.6	23.6	23.6	80	18.4	0	2	112	0.00	30.251 
10:55	23.9	23.9	23.9	80	18.6	0	1	135	0.00	30.258 
11:00	24.1	24.1	24.1	79	18.5	0	1	135	0.00	30.262 
11:05	24.1	24.1	24.1	79	18.5	0	1	135	0.00	30.264 
11:10	24.1	24.1	24.1	79	18.5	0	2	135	0.00	30.263 
11:15	24.1	24.1	24.1	79	18.5	0	2	90	0.00	30.260 
11:20	24.2	24.2	24.2	79	18.6	0	2	90	0.00	30.262 
11:25	24.4	24.4	24.4	79	18.8	0	1	90	0.00	30.263 
11:30	24.5	24.5	24.5	78	18.6	0	2	90	0.00	30.267 
11:35	24.5	24.5	24.5	78	18.6	0	2	90	0.00	30.264 
11:40	24.5	24.5	24.5	78	18.6	0	1	90	0.00	30.262 
11:45	24.7	24.7	24.7	78	18.8	0	1	90	0.00	30.268 
11:50	24.8	24.8	24.8	78	18.9	1	4	90	0.00	30.264 
11:55	24.7	24.7	24.7	78	18.8	0	5	90	0.00	30.262 
12:00	24.7	24.7	24.7	78	18.8	0	1	90	0.00	30.258 
12:05	24.7	24.7	24.7	79	19.1	0	2	90	0.00	30.250 
12:10	24.8	24.8	24.8	79	19.2	0	3	90	0.00	30.247 
12:15	25.0	25.0	25.0	78	19.1	1	5	90	0.00	30.245 
12:20	24.8	24.8	24.8	78	18.9	1	3	112	0.00	30.244 
12:25	24.8	24.8	24.8	79	19.2	1	3	112	0.00	30.243 
12:30	24.7	24.7	24.7	79	19.1	1	3	112	0.00	30.237 
12:35	24.8	24.8	24.8	80	19.5	1	3	135	0.00	30.236 
12:40	24.8	24.8	24.8	79	19.2	1	5	22	0.00	30.234 
12:45	25.0	25.0	25.0	79	19.4	1	3	22	0.00	30.232 
12:50	24.8	24.8	24.8	78	18.9	2	5	90	0.00	30.233 
12:55	25.1	25.1	25.1	78	19.2	0	2	45	0.00	30.230 
13:00	25.4	25.4	25.4	77	19.2	1	5	68	0.00	30.229 
13:05	25.4	25.4	25.4	77	19.2	1	3	90	0.00	30.223 
13:10	25.4	25.4	25.4	77	19.2	1	6	135	0.00	30.214 
13:15	25.6	25.6	25.6	76	19.1	1	5	112	0.00	30.208 
13:20	25.6	25.6	25.6	76	19.1	1	4	90	0.00	30.206 
13:25	25.6	25.6	25.6	76	19.1	0	2	112	0.00	30.200 
13:30	25.7	25.7	25.7	76	19.2	0	3	90	0.00	30.199 
13:35	25.7	25.7	25.7	76	19.2	1	4	112	0.00	30.202 
13:40	25.6	25.6	25.6	77	19.4	1	5	248	0.00	30.206 
13:45	25.6	25.6	25.6	76	19.1	1	4	0	0.00	30.201 
13:50	25.7	25.7	25.7	77	19.5	1	5	112	0.00	30.198 
13:55	25.6	25.6	25.6	77	19.4	2	6	248	0.00	30.198 
14:00	25.7	25.7	25.7	77	19.5	1	5	248	0.00	30.197 
14:05	25.8	25.8	25.8	77	19.6	1	4	248	0.00	30.193 
14:10	26.0	26.0	26.0	76	19.5	1	4	248	0.00	30.196 
14:15	26.0	26.0	26.0	76	19.5	1	4	248	0.00	30.192 
14:20	26.0	26.0	26.0	76	19.5	1	4	270	0.00	30.189 
14:25	25.8	25.8	25.8	76	19.3	2	6	248	0.00	30.186 
14:30	25.8	25.8	25.8	76	19.3	2	6	248	0.00	30.184 
14:35	26.0	26.0	26.0	77	19.8	1	4	248	0.00	30.172 
14:40	26.0	26.0	26.0	76	19.5	1	3	90	0.00	30.162 
14:45	26.0	26.0	26.0	77	19.8	1	4	90	0.00	30.156 
14:50	26.1	26.1	26.1	77	19.9	1	3	68	0.00	30.159 
14:55	26.1	26.1	26.1	76	19.6	1	3	248	0.00	30.168 
15:00	26.0	26.0	26.0	76	19.5	1	4	270	0.00	30.169 
15:05	26.1	26.1	26.1	77	19.9	1	3	225	0.00	30.168 
15:10	26.1	26.1	26.1	76	19.6	2	4	248	0.00	30.173 
15:15	26.0	26.0	26.0	76	19.5	1	3	248	0.00	30.171 
15:20	26.0	26.0	26.0	77	19.8	1	3	225	0.00	30.171 
15:25	26.0	26.0	26.0	77	19.8	1	3	225	0.00	30.171 
15:30	26.0	26.0	26.0	77	19.8	1	9	225	0.00	30.171 
15:35	26.0	26.0	26.0	77	19.8	2	6	248	0.00	30.176 
15:40	25.8	25.8	25.8	77	19.6	2	7	248	0.00	30.178 
15:45	25.8	25.8	25.8	78	19.9	2	5	248	0.00	30.177 
15:50	25.8	25.8	25.8	78	19.9	1	4	248	0.00	30.172 
15:55	26.0	26.0	26.0	78	20.1	1	4	248	0.00	30.174 
16:00	26.0	26.0	26.0	78	20.1	2	4	248	0.00	30.171 
16:05	26.1	26.1	26.1	78	20.2	0	2	225	0.00	30.170 
16:10	26.3	26.3	26.3	78	20.4	0	2	225	0.00	30.166 
16:15	26.3	26.3	26.3	78	20.4	0	2	225	0.00	30.165 
16:20	26.3	26.3	26.3	78	20.4	0	1	225	0.00	30.165 
16:25	26.4	26.4	26.4	78	20.5	0	2	225	0.00	30.167 
16:30	26.4	26.4	26.4	78	20.5	0	1	225	0.00	30.167 
16:35	26.4	26.4	26.4	78	20.5	0	2	225	0.00	30.167 
16:40	26.4	26.4	26.4	78	20.5	0	3	248	0.00	30.166 
16:45	26.3	26.3	26.3	78	20.4	0	1	248	0.00	30.164 
16:50	26.3	26.3	26.3	78	20.4	0	1	248	0.00	30.164 
16:55	26.3	26.3	26.3	79	20.7	0	1	248	0.00	30.166 
17:00	26.3	26.3	26.3	79	20.7	0	1	248	0.00	30.164 
17:05	26.3	26.3	26.3	79	20.7	0	1	248	0.00	30.165 
17:10	26.3	26.3	26.3	79	20.7	0	1	248	0.00	30.163 
17:15	26.3	26.3	26.3	79	20.7	0	2	248	0.00	30.155 
17:20	26.3	26.3	26.3	79	20.7	0	2	202	0.00	30.154 
17:25	26.1	26.1	26.1	80	20.8	0	1	202	0.00	30.154 
17:30	26.1	26.1	26.1	79	20.5	0	1	202	0.00	30.153 
17:35	26.0	26.0	26.0	80	20.7	0	1	202	0.00	30.151 
17:40	25.8	25.8	25.8	80	20.5	0	0	---	0.00	30.151 
17:45	25.6	25.6	25.6	80	20.3	0	0	---	0.00	30.150 
17:50	25.4	25.4	25.4	80	20.1	0	0	---	0.00	30.150 
17:55	25.1	25.1	25.1	80	19.8	0	0	---	0.00	30.150 
18:00	25.0	25.0	25.0	81	20.0	0	0	---	0.00	30.150 
18:05	24.8	24.8	24.8	81	19.8	0	0	---	0.00	30.148 
18:10	24.7	24.7	24.7	82	20.0	0	0	---	0.00	30.145 
18:15	24.7	24.7	24.7	83	20.3	0	1	202	0.00	30.144 
18:20	24.8	24.8	24.8	83	20.4	0	1	202	0.00	30.139 
18:25	24.8	24.8	24.8	83	20.4	0	2	202	0.00	30.136 
18:30	24.8	24.8	24.8	83	20.4	0	1	202	0.00	30.136 
18:35	24.8	24.8	24.8	83	20.4	0	1	202	0.00	30.136 
18:40	24.7	24.7	24.7	83	20.3	0	1	202	0.00	30.136 
18:45	24.7	24.7	24.7	83	20.3	0	1	202	0.00	30.136 
18:50	24.7	24.7	24.7	84	20.6	0	1	202	0.00	30.136 
18:55	24.7	24.7	24.7	84	20.6	0	1	202	0.00	30.135 
19:00	25.0	25.0	25.0	84	20.9	0	2	202	0.00	30.133 
19:05	25.1	25.1	25.1	84	21.0	0	2	202	0.00	30.131 
19:10	25.1	25.1	25.1	84	21.0	1	3	90	0.00	30.132 
19:15	25.3	25.3	25.3	84	21.2	1	2	90	0.00	30.124 
19:20	25.3	25.3	25.3	84	21.2	1	3	90	0.00	30.120 
19:25	25.3	25.3	25.3	85	21.4	1	2	90	0.00	30.116 
19:30	25.3	25.3	25.3	85	21.4	1	3	90	0.00	30.106 
19:35	25.3	25.3	25.3	85	21.4	1	4	90	0.00	30.105 
19:40	25.4	25.4	25.4	86	21.8	1	2	90	0.00	30.104 
19:45	25.4	25.4	25.4	86	21.8	1	4	90	0.00	30.102 
19:50	25.4	25.4	25.4	86	21.8	1	3	90	0.00	30.097 
19:55	25.4	25.4	25.4	86	21.8	0	1	90	0.00	30.099 
20:00	25.4	25.4	25.4	86	21.8	0	1	90	0.00	30.094 
20:05	25.4	25.4	25.4	87	22.1	0	1	90	0.00	30.090 
20:10	25.6	25.6	25.6	87	22.3	1	3	90	0.00	30.086 
20:15	25.6	25.6	25.6	87	22.3	0	1	90	0.00	30.082 
20:20	25.7	25.7	25.7	87	22.4	0	1	90	0.00	30.080 
20:25	25.7	25.7	25.7	87	22.4	0	2	112	0.00	30.077 
20:30	25.7	25.7	25.7	87	22.4	0	1	112	0.00	30.075 
20:35	25.8	25.8	25.8	87	22.5	0	1	112	0.00	30.071 
20:40	25.8	25.8	25.8	87	22.5	0	1	112	0.00	30.070 
20:45	26.0	26.0	26.0	87	22.7	0	2	135	0.00	30.069 
20:50	25.8	25.8	25.8	87	22.5	0	1	135	0.00	30.069 
20:55	25.8	25.8	25.8	87	22.5	0	2	135	0.00	30.068 
21:00	25.7	25.7	25.7	87	22.4	0	2	135	0.00	30.067 
21:05	25.8	25.8	25.8	87	22.5	0	2	135	0.00	30.063 
21:10	26.0	26.0	26.0	87	22.7	0	2	158	0.00	30.058 
21:15	26.0	26.0	26.0	88	22.9	1	3	135	0.00	30.055 
21:20	26.1	26.1	26.1	87	22.8	0	1	135	0.00	30.054 
21:25	26.1	26.1	26.1	87	22.8	0	2	112	0.00	30.048 
21:30	26.0	26.0	26.0	87	22.7	0	2	112	0.00	30.048 
21:35	26.0	26.0	26.0	87	22.7	0	2	112	0.00	30.042 
21:40	25.8	25.8	25.8	87	22.5	0	1	112	0.00	30.039 
21:45	25.7	25.7	25.7	87	22.4	0	1	112	0.00	30.037 
21:50	25.7	25.7	25.7	88	22.6	0	2	112	0.00	30.038 
21:55	25.8	25.8	25.8	88	22.7	0	2	112	0.00	30.036 
22:00	26.0	26.0	26.0	88	22.9	0	1	112	0.00	30.033 
22:05	26.1	26.1	26.1	88	23.0	0	2	112	0.00	30.027 
22:10	26.1	26.1	26.1	88	23.0	0	1	135	0.00	30.023 
22:15	26.3	26.3	26.3	88	23.2	0	1	135	0.00	30.020 
22:20	26.3	26.3	26.3	88	23.2	0	2	135	0.00	30.020 
22:25	26.4	26.4	26.4	88	23.3	0	2	112	0.00	30.013 
22:30	26.4	26.4	26.4	88	23.3	0	3	135	0.00	30.015 
22:35	26.6	26.6	26.6	88	23.5	1	3	90	0.00	30.009 
22:40	26.7	26.7	26.7	88	23.6	1	7	112	0.00	30.005 
22:45	27.2	27.2	27.2	89	24.4	2	7	112	0.00	30.003 
22:50	27.6	27.6	27.6	89	24.8	2	6	90	0.00	29.996 
22:55	27.9	27.9	27.9	89	25.1	2	6	112	0.00	29.990 
23:00	28.4	28.4	28.4	90	25.8	2	5	90	0.00	29.987 
23:05	28.5	28.5	28.5	90	25.9	1	4	90	0.00	29.986 
23:10	28.8	28.8	28.8	90	26.2	1	5	90	0.00	29.991 
23:15	29.0	29.0	29.0	90	26.4	1	5	90	0.00	29.987 
23:20	29.1	29.1	29.1	90	26.5	1	5	90	0.00	29.985 
23:25	29.3	29.3	29.3	91	27.0	1	3	45	0.00	29.980 
23:30	29.3	29.3	29.3	91	27.0	1	5	90	0.00	29.976 
23:35	29.4	29.4	29.4	91	27.1	1	7	112	0.00	29.971 
23:40	29.5	29.5	29.5	91	27.2	1	3	270	0.00	29.970 
23:45	29.5	29.5	29.5	91	27.2	1	3	90	0.00	29.969 
23:50	29.7	29.7	29.7	92	27.7	1	3	68	0.00	29.968 
23:55	29.8	29.8	29.8	92	27.8	2	4	90	0.00	29.965 

CoCoRaHS
IN-AL-39
A2 Web Hosting
Creative Commons License
GoDaddy
search engine by freefind advanced

loaded 2018-11-13 21:19:05 • last modified 2010-11-18 10:43:29
Privacy PolicyDisclaimer
• wx.awcolley.com is powered by PmWiki v.2002016 •
• all content (unless otherwise noted) © 2018 A W Colley